Time;durP1;ratioP1;P1;durP2;ratioP2;P2;SDS_P1;SDS_P2;PMS_P1;PMS_P2;Temp;Humidity;BMP_temperature;BMP_pressure;BME280_temperature;BME280_humidity;BME280_pressure;Samples;Min_cycle;Max_cycle;Signal;HPM_P1;HPM_P2
2023/08/26 00:00:24;;;;;;;14.58;6.10;;;;;;;24.41;44.11;100162.53;1722025;82;21363;-77
2023/08/26 00:03:29;;;;;;;13.22;5.95;;;;;;;24.39;44.25;100163.38;1720291;82;21895;-77
2023/08/26 00:06:34;;;;;;;9.48;5.87;;;;;;;24.38;44.25;100165.33;1714310;82;21372;-77
2023/08/26 00:09:42;;;;;;;11.50;5.42;;;;;;;24.23;44.54;100177.23;1716837;82;21673;-76
2023/08/26 00:12:48;;;;;;;13.60;5.65;;;;;;;24.19;44.83;100181.67;1717265;82;21372;-77
2023/08/26 00:15:55;;;;;;;14.00;6.08;;;;;;;24.28;44.69;100176.95;1714321;82;21734;-77
2023/08/26 00:19:02;;;;;;;11.15;6.28;;;;;;;24.26;44.72;100176.39;1720385;82;21353;-77
2023/08/26 00:22:08;;;;;;;14.63;6.20;;;;;;;24.26;44.64;100183.37;1724371;82;21352;-77
2023/08/26 00:25:15;;;;;;;18.80;6.60;;;;;;;24.13;44.88;100184.13;1716715;82;21361;-77
2023/08/26 00:28:21;;;;;;;12.58;5.80;;;;;;;24.10;45.28;100181.89;1716169;82;22009;-77
2023/08/26 00:31:27;;;;;;;15.32;6.28;;;;;;;24.25;45.44;100190.09;1716682;82;21365;-78
2023/08/26 00:34:33;;;;;;;18.23;6.10;;;;;;;24.50;44.61;100191.66;1741154;81;21337;-77
2023/08/26 00:37:40;;;;;;;22.13;6.15;;;;;;;24.40;44.31;100188.81;1743103;80;21211;-77
2023/08/26 00:40:46;;;;;;;15.18;6.53;;;;;;;24.41;44.54;100182.09;1742979;81;21330;-77
2023/08/26 00:43:52;;;;;;;24.02;6.20;;;;;;;24.30;44.75;100181.73;1742099;81;21355;-77
2023/08/26 00:46:59;;;;;;;18.02;6.78;;;;;;;24.13;45.11;100180.49;1722306;82;21356;-78
2023/08/26 00:50:04;;;;;;;16.75;6.55;;;;;;;24.26;45.09;100177.79;1721212;82;21349;-78
2023/08/26 00:53:10;;;;;;;13.15;6.78;;;;;;;24.12;45.38;100179.66;1720064;82;21348;-77
2023/08/26 00:56:16;;;;;;;14.50;6.67;;;;;;;23.87;45.30;100178.08;1720289;82;22003;-77
2023/08/26 00:59:22;;;;;;;20.48;6.53;;;;;;;23.74;45.52;100177.13;1715911;82;21784;-77
2023/08/26 01:02:27;;;;;;;19.35;7.47;;;;;;;23.62;45.69;100177.27;1714364;82;21738;-77
2023/08/26 01:05:34;;;;;;;21.62;7.10;;;;;;;23.64;45.35;100177.33;1701688;83;21857;-77
2023/08/26 01:08:40;;;;;;;19.62;7.42;;;;;;;23.61;45.37;100179.77;1698725;83;21306;-77
2023/08/26 01:11:59;;;;;;;16.87;8.08;;;;;;;23.75;45.15;100178.81;1699886;83;21346;-77
2023/08/26 01:15:10;;;;;;;23.45;7.30;;;;;;;23.79;45.09;100178.01;1707513;83;21342;-77
2023/08/26 01:18:17;;;;;;;16.35;7.08;;;;;;;23.88;44.84;100178.36;1699622;83;21409;-77
2023/08/26 01:21:22;;;;;;;12.58;7.03;;;;;;;23.81;45.04;100177.77;1675788;84;21357;-76
2023/08/26 01:24:29;;;;;;;17.92;6.42;;;;;;;24.01;44.72;100179.87;1689855;83;21366;-77
2023/08/26 01:27:35;;;;;;;20.37;8.08;;;;;;;23.88;45.06;100182.55;1687548;83;21908;-76
2023/08/26 01:30:41;;;;;;;17.05;7.22;;;;;;;23.77;45.77;100186.38;1686543;83;21342;-76
2023/08/26 01:34:03;;;;;;;16.87;7.30;;;;;;;23.60;46.29;100184.52;1682951;83;21355;-77
2023/08/26 01:37:08;;;;;;;19.30;7.80;;;;;;;23.80;45.89;100196.44;1688514;83;21385;-77
2023/08/26 01:40:16;;;;;;;24.02;8.03;;;;;;;23.79;45.87;100193.37;1685575;82;21390;-77
2023/08/26 01:43:22;;;;;;;20.32;7.33;;;;;;;23.75;46.35;100193.61;1686538;83;21863;-77
2023/08/26 01:46:43;;;;;;;17.60;6.83;;;;;;;23.83;46.20;100193.69;1687528;82;21691;-77
2023/08/26 01:49:48;;;;;;;16.65;7.87;;;;;;;23.82;45.96;100195.64;1695532;82;21358;-76
2023/08/26 01:52:54;;;;;;;16.75;8.20;;;;;;;23.86;45.87;100188.97;1713744;82;21362;-77
2023/08/26 01:55:59;;;;;;;13.30;7.10;;;;;;;23.81;45.96;100195.36;1715841;82;21908;-77
2023/08/26 01:59:06;;;;;;;14.58;7.75;;;;;;;23.82;46.14;100190.05;1717522;82;21912;-76
2023/08/26 02:02:13;;;;;;;16.67;7.60;;;;;;;23.83;46.04;100191.73;1712797;82;21322;-77
2023/08/26 02:05:18;;;;;;;15.78;6.97;;;;;;;23.79;46.20;100195.33;1717396;82;21353;-77
2023/08/26 02:08:24;;;;;;;15.93;7.50;;;;;;;23.97;45.80;100200.50;1710844;83;21387;-78
2023/08/26 02:11:29;;;;;;;12.18;7.12;;;;;;;24.07;45.43;100203.37;1714821;82;21363;-77
2023/08/26 02:14:35;;;;;;;16.12;8.23;;;;;;;23.79;45.98;100203.70;1714875;82;21342;-77
2023/08/26 02:17:40;;;;;;;17.02;7.35;;;;;;;23.90;45.88;100208.25;1713900;82;21367;-77
2023/08/26 02:20:50;;;;;;;17.57;7.58;;;;;;;23.67;46.21;100207.52;1716357;83;21363;-77
2023/08/26 02:23:56;;;;;;;19.55;7.78;;;;;;;23.47;46.74;100208.67;1713424;82;21372;-77
2023/08/26 02:27:02;;;;;;;20.90;7.25;;;;;;;23.40;46.99;100213.64;1715513;82;21376;-77
2023/08/26 02:30:08;;;;;;;20.50;8.10;;;;;;;23.39;46.92;100217.55;1717583;83;21375;-77
2023/08/26 02:33:13;;;;;;;18.45;7.42;;;;;;;23.42;46.78;100216.99;1717232;83;21319;-76
2023/08/26 02:36:19;;;;;;;18.02;8.65;;;;;;;23.40;47.23;100222.02;1718616;83;22655;-76
2023/08/26 02:39:24;;;;;;;14.28;7.10;;;;;;;23.47;46.90;100228.21;1715664;82;21391;-77
2023/08/26 02:42:32;;;;;;;22.77;7.83;;;;;;;23.52;46.38;100228.81;1717569;82;21370;-77
2023/08/26 02:45:38;;;;;;;22.50;8.70;;;;;;;23.62;46.22;100224.20;1708352;83;21335;-77
2023/08/26 02:48:46;;;;;;;20.30;8.55;;;;;;;23.54;46.65;100230.25;1713873;82;21360;-77
2023/08/26 02:51:52;;;;;;;20.50;7.55;;;;;;;23.42;46.93;100224.81;1712711;83;21347;-76
2023/08/26 02:54:58;;;;;;;21.17;7.90;;;;;;;23.48;46.79;100222.94;1714931;83;21391;-77
2023/08/26 02:58:05;;;;;;;12.98;8.03;;;;;;;23.37;46.93;100226.72;1714613;83;21371;-77
2023/08/26 03:01:10;;;;;;;19.80;8.03;;;;;;;23.52;46.78;100226.86;1716011;83;21351;-77
2023/08/26 03:04:15;;;;;;;22.20;9.00;;;;;;;23.57;46.91;100230.26;1716296;83;21691;-77
2023/08/26 03:07:21;;;;;;;18.95;8.38;;;;;;;23.74;46.62;100228.79;1715472;83;21353;-77
2023/08/26 03:10:28;;;;;;;38.28;11.35;;;;;;;23.75;46.69;100234.66;1716409;83;21344;-77
2023/08/26 03:13:34;;;;;;;22.93;9.18;;;;;;;23.70;46.96;100237.69;1714175;83;21348;-77
2023/08/26 03:16:40;;;;;;;18.67;8.08;;;;;;;23.65;47.43;100236.24;1714564;82;21907;-77
2023/08/26 03:19:46;;;;;;;21.30;8.10;;;;;;;23.82;47.46;100240.33;1717191;83;21393;-76
2023/08/26 03:22:52;;;;;;;30.00;9.10;;;;;;;23.99;47.07;100240.17;1713393;83;21387;-76
2023/08/26 03:25:58;;;;;;;29.00;9.35;;;;;;;24.10;46.82;100241.12;1699882;83;21394;-76
2023/08/26 03:29:04;;;;;;;19.42;8.53;;;;;;;24.14;46.84;100247.86;1714512;83;22030;-76
2023/08/26 03:32:11;;;;;;;26.65;8.35;;;;;;;24.25;46.61;100249.61;1714496;83;21931;-77
2023/08/26 03:35:17;;;;;;;23.60;10.20;;;;;;;24.40;46.36;100254.50;1715695;82;21905;-77
2023/08/26 03:38:23;;;;;;;20.48;8.60;;;;;;;24.52;46.20;100245.36;1711880;83;22673;-78
2023/08/26 03:41:29;;;;;;;21.07;8.13;;;;;;;24.74;45.72;100251.63;1712102;83;21340;-78
2023/08/26 03:44:36;;;;;;;20.02;8.03;;;;;;;24.76;45.70;100244.94;1712839;82;21243;-78
2023/08/26 03:47:43;;;;;;;20.05;8.85;;;;;;;24.89;45.61;100238.83;1711934;83;21339;-78
2023/08/26 03:51:04;;;;;;;24.23;9.33;;;;;;;24.95;45.53;100240.55;1715208;82;21135;-77
2023/08/26 03:54:09;;;;;;;16.62;8.33;;;;;;;25.09;45.46;100245.13;1715074;82;22007;-77
2023/08/26 03:57:15;;;;;;;26.20;8.23;;;;;;;25.23;45.44;100254.13;1714653;83;21314;-78
2023/08/26 04:00:21;;;;;;;17.95;8.05;;;;;;;25.44;45.29;100251.38;1713362;83;21360;-77
2023/08/26 04:03:28;;;;;;;24.25;9.05;;;;;;;25.48;45.21;100251.95;1718086;82;21314;-77
2023/08/26 04:06:35;;;;;;;19.67;8.70;;;;;;;25.71;44.91;100254.80;1713475;83;21348;-77
2023/08/26 04:09:42;;;;;;;16.75;8.50;;;;;;;26.11;44.34;100250.38;1717110;83;22009;-77
2023/08/26 04:12:48;;;;;;;21.27;8.35;;;;;;;26.24;44.19;100248.95;1718589;83;21406;-77
2023/08/26 04:16:03;;;;;;;21.20;8.43;;;;;;;26.44;44.00;100252.31;1711819;83;21351;-77
2023/08/26 04:19:03;;;;;;;25.05;9.43;;;;;;;26.60;44.02;100248.94;1715149;82;21609;-78
2023/08/26 04:22:10;;;;;;;20.95;8.83;;;;;;;26.93;43.74;100249.67;1715370;83;21668;-77
2023/08/26 04:25:16;;;;;;;19.10;9.35;;;;;;;27.23;43.49;100245.91;1713728;83;21407;-77
2023/08/26 04:28:22;;;;;;;24.95;9.98;;;;;;;27.48;43.52;100242.72;1715498;82;21373;-78
2023/08/26 04:31:27;;;;;;;21.75;9.48;;;;;;;27.72;43.25;100243.70;1709133;83;22082;-78
2023/08/26 04:34:34;;;;;;;21.55;9.38;;;;;;;28.02;43.15;100247.40;1712430;83;21337;-78
2023/08/26 04:37:39;;;;;;;24.67;9.85;;;;;;;28.19;42.89;100247.82;1713431;83;21346;-78
2023/08/26 04:40:46;;;;;;;24.00;10.25;;;;;;;28.62;42.26;100246.58;1712716;83;21367;-78
2023/08/26 04:43:52;;;;;;;23.73;9.55;;;;;;;28.71;42.28;100239.17;1716121;82;21340;-77
2023/08/26 04:47:00;;;;;;;23.65;11.08;;;;;;;28.88;41.88;100249.09;1711356;83;21341;-77
2023/08/26 04:50:05;;;;;;;28.55;10.13;;;;;;;28.93;41.47;100240.59;1712728;82;21406;-76
2023/08/26 04:53:12;;;;;;;28.60;12.10;;;;;;;29.17;40.80;100248.50;1716983;83;21920;-76
2023/08/26 04:56:18;;;;;;;26.62;11.08;;;;;;;29.24;40.16;100248.12;1714385;82;21341;-76
2023/08/26 04:59:23;;;;;;;24.63;11.70;;;;;;;29.50;39.53;100247.17;1716013;82;21415;-77
2023/08/26 05:02:29;;;;;;;26.50;11.12;;;;;;;29.61;39.12;100250.73;1714195;83;22646;-77
2023/08/26 05:05:36;;;;;;;20.08;10.75;;;;;;;29.72;38.86;100247.44;1712197;82;21360;-77
2023/08/26 05:08:41;;;;;;;24.82;12.33;;;;;;;29.68;38.68;100249.19;1714388;83;21733;-77
2023/08/26 05:11:47;;;;;;;22.58;11.50;;;;;;;29.88;38.04;100246.65;1716496;83;21898;-77
2023/08/26 05:14:53;;;;;;;18.92;10.45;;;;;;;30.07;37.45;100242.97;1714861;83;21664;-77
2023/08/26 05:18:00;;;;;;;22.00;10.85;;;;;;;30.16;37.54;100243.94;1712191;83;21618;-77
2023/08/26 05:21:07;;;;;;;23.35;11.60;;;;;;;30.38;37.38;100247.51;1712760;82;22563;-76
2023/08/26 05:24:15;;;;;;;19.92;11.10;;;;;;;30.39;37.29;100246.36;1703361;83;21254;-77
2023/08/26 05:27:22;;;;;;;19.62;11.63;;;;;;;30.60;37.24;100251.90;1718783;83;21372;-77
2023/08/26 05:30:28;;;;;;;23.73;11.25;;;;;;;30.85;36.71;100251.16;1718442;83;21381;-76
2023/08/26 05:33:34;;;;;;;24.02;10.20;;;;;;;31.05;36.25;100254.42;1735051;81;21335;-77
2023/08/26 05:36:39;;;;;;;22.35;10.20;;;;;;;30.94;36.29;100257.17;1705796;83;21437;-78
2023/08/26 05:39:45;;;;;;;21.27;10.40;;;;;;;31.11;36.29;100257.14;1748605;80;21339;-78
2023/08/26 05:42:51;;;;;;;14.87;9.53;;;;;;;31.19;36.13;100253.55;1745061;81;21328;-78
2023/08/26 05:46:01;;;;;;;21.85;11.18;;;;;;;31.03;36.53;100258.12;1749977;81;21351;-78
2023/08/26 05:49:07;;;;;;;27.82;10.08;;;;;;;31.09;36.10;100256.59;1751028;81;21315;-77
2023/08/26 05:52:13;;;;;;;20.23;8.83;;;;;;;31.00;36.32;100262.14;1705749;82;22257;-78
2023/08/26 05:55:18;;;;;;;26.77;8.98;;;;;;;31.45;35.99;100253.30;1689076;84;21359;-77
2023/08/26 05:58:25;;;;;;;29.32;9.30;;;;;;;31.39;35.62;100257.98;1742631;81;21407;-78
2023/08/26 06:01:30;;;;;;;26.35;8.60;;;;;;;31.64;35.08;100260.20;1744759;81;21410;-78
2023/08/26 06:04:36;;;;;;;21.30;8.50;;;;;;;31.94;34.41;100262.07;1752747;81;21201;-78
2023/08/26 06:07:43;;;;;;;20.95;7.83;;;;;;;32.13;34.04;100266.95;1750631;81;21299;-79
2023/08/26 06:10:48;;;;;;;19.05;7.65;;;;;;;32.34;34.10;100262.21;1746573;81;21367;-77
2023/08/26 06:13:54;;;;;;;21.50;6.85;;;;;;;32.51;33.92;100261.78;1745610;81;21375;-76
2023/08/26 06:17:01;;;;;;;24.95;7.72;;;;;;;32.53;33.85;100267.94;1744689;81;22004;-76
2023/08/26 06:20:07;;;;;;;15.20;7.55;;;;;;;32.59;33.76;100270.04;1745167;81;22171;-76
2023/08/26 06:23:15;;;;;;;21.17;7.50;;;;;;;32.96;33.13;100265.09;1743743;82;21994;-77
2023/08/26 06:26:20;;;;;;;14.13;6.53;;;;;;;33.11;32.67;100270.89;1744337;81;21333;-76
2023/08/26 06:29:27;;;;;;;11.45;6.45;;;;;;;33.35;32.17;100275.53;1746122;81;22876;-76
2023/08/26 06:32:32;;;;;;;13.28;6.40;;;;;;;33.32;31.94;100275.63;1735388;80;22598;-77
2023/08/26 06:35:38;;;;;;;11.80;6.30;;;;;;;33.46;31.72;100281.20;1712277;82;21407;-76
2023/08/26 06:38:44;;;;;;;16.35;6.55;;;;;;;33.52;31.80;100277.62;1718087;82;21327;-77
2023/08/26 06:41:50;;;;;;;10.00;6.17;;;;;;;33.75;31.44;100273.48;1713111;82;21302;-76
2023/08/26 06:44:59;;;;;;;11.22;5.75;;;;;;;33.79;30.84;100277.32;1712360;83;21939;-77
2023/08/26 06:48:05;;;;;;;9.68;5.62;;;;;;;33.79;31.21;100276.48;1712423;83;21258;-77
2023/08/26 06:51:11;;;;;;;15.25;6.05;;;;;;;34.11;30.45;100276.58;1713162;83;21372;-77
2023/08/26 06:54:17;;;;;;;12.45;6.12;;;;;;;34.12;30.15;100274.60;1715439;82;21401;-77
2023/08/26 06:57:23;;;;;;;13.40;5.83;;;;;;;34.26;30.28;100272.41;1715206;83;21373;-76
2023/08/26 07:00:29;;;;;;;18.15;6.08;;;;;;;34.46;29.25;100275.16;1719799;83;21372;-76
2023/08/26 07:03:34;;;;;;;10.98;5.37;;;;;;;34.55;28.78;100278.81;1717617;83;21341;-76
2023/08/26 07:06:41;;;;;;;9.93;5.95;;;;;;;34.64;28.56;100276.78;1717898;82;22354;-76
2023/08/26 07:09:48;;;;;;;13.45;5.50;;;;;;;34.58;28.49;100280.95;1712156;83;21345;-76
2023/08/26 07:12:55;;;;;;;15.90;5.62;;;;;;;34.72;28.80;100279.33;1714516;82;21325;-75
2023/08/26 07:16:01;;;;;;;15.60;4.95;;;;;;;34.87;28.67;100277.37;1713302;82;21334;-77
2023/08/26 07:19:08;;;;;;;10.23;4.75;;;;;;;34.98;28.42;100275.84;1715383;82;21346;-77
2023/08/26 07:22:14;;;;;;;10.20;5.25;;;;;;;35.14;28.02;100283.20;1714313;82;21331;-76
2023/08/26 07:25:23;;;;;;;9.23;5.22;;;;;;;35.21;27.89;100287.77;1713304;82;21337;-76
2023/08/26 07:28:29;;;;;;;13.78;5.50;;;;;;;35.28;27.53;100280.11;1713712;83;21363;-76
2023/08/26 07:31:35;;;;;;;13.62;5.67;;;;;;;35.25;27.37;100278.81;1717261;83;21353;-76
2023/08/26 07:34:41;;;;;;;17.70;5.17;;;;;;;35.15;27.78;100284.89;1715394;82;21642;-76
2023/08/26 07:37:47;;;;;;;11.43;4.85;;;;;;;35.36;27.19;100289.78;1715207;82;21358;-76
2023/08/26 07:40:53;;;;;;;11.55;5.10;;;;;;;35.20;27.54;100286.11;1715283;83;21991;-76
2023/08/26 07:43:58;;;;;;;12.98;5.53;;;;;;;34.98;28.71;100287.80;1708530;83;21258;-76
2023/08/26 07:47:04;;;;;;;7.28;3.80;;;;;;;34.83;28.28;100287.16;1712264;82;23126;-76
2023/08/26 07:50:13;;;;;;;12.75;4.90;;;;;;;35.17;27.73;100283.95;1711568;83;21376;-76
2023/08/26 07:53:19;;;;;;;10.15;4.47;;;;;;;35.05;28.03;100285.24;1712313;82;21364;-77
2023/08/26 07:56:24;;;;;;;7.78;3.90;;;;;;;35.46;27.60;100281.71;1710996;83;22553;-77
2023/08/26 07:59:29;;;;;;;13.68;5.00;;;;;;;35.50;26.91;100281.86;1709938;83;22197;-76
2023/08/26 08:02:35;;;;;;;11.88;4.40;;;;;;;35.42;26.80;100282.13;1714555;83;21379;-76
2023/08/26 08:05:42;;;;;;;5.80;3.58;;;;;;;35.34;26.39;100281.02;1712362;83;21350;-76
2023/08/26 08:08:48;;;;;;;12.75;3.25;;;;;;;35.30;26.20;100272.09;1713106;82;21387;-76
2023/08/26 08:11:54;;;;;;;4.22;2.52;;;;;;;35.28;24.76;100269.58;1712746;82;21680;-76
2023/08/26 08:15:01;;;;;;;9.13;3.50;;;;;;;35.44;25.51;100264.73;1713196;83;21344;-76
2023/08/26 08:18:07;;;;;;;7.10;3.33;;;;;;;35.44;25.51;100264.73;1713415;83;21333;-76
2023/08/26 08:21:12;;;;;;;7.33;3.35;;;;;;;35.52;25.25;100263.86;1710822;83;21925;-76
2023/08/26 08:24:18;;;;;;;5.25;3.08;;;;;;;35.49;25.83;100261.72;1712653;82;21990;-76
2023/08/26 08:27:24;;;;;;;6.87;3.33;;;;;;;35.49;25.83;100261.72;1713359;83;22355;-76
2023/08/26 08:30:29;;;;;;;5.65;3.15;;;;;;;35.53;25.35;100264.95;1717396;82;21383;-76
2023/08/26 08:33:35;;;;;;;11.57;3.50;;;;;;;35.60;25.65;100261.55;1720053;82;22455;-76
2023/08/26 08:36:40;;;;;;;6.20;2.62;;;;;;;35.73;25.09;100263.89;1717410;82;21377;-76
2023/08/26 08:39:46;;;;;;;7.47;2.72;;;;;;;35.77;24.46;100263.44;1672922;84;21397;-76
2023/08/26 08:42:52;;;;;;;10.72;2.83;;;;;;;35.71;24.44;100257.13;1714465;83;21376;-76
2023/08/26 08:45:58;;;;;;;5.55;2.75;;;;;;;35.77;24.18;100259.17;1715761;82;21384;-76
2023/08/26 08:49:04;;;;;;;8.18;2.72;;;;;;;35.85;23.96;100259.67;1734932;81;21994;-76
2023/08/26 08:52:11;;;;;;;9.80;2.52;;;;;;;36.07;23.94;100259.34;1745246;81;21354;-76
2023/08/26 08:55:17;;;;;;;13.53;2.70;;;;;;;35.86;25.14;100263.38;1739406;81;21342;-76
2023/08/26 08:58:23;;;;;;;9.13;2.60;;;;;;;35.79;24.63;100261.06;1712930;83;21986;-76
2023/08/26 09:01:30;;;;;;;16.35;2.92;;;;;;;36.08;24.31;100255.30;1712281;83;21352;-76
2023/08/26 09:04:36;;;;;;;4.75;2.50;;;;;;;35.80;24.20;100264.14;1711871;83;21990;-76
2023/08/26 09:07:43;;;;;;;4.58;2.62;;;;;;;35.94;24.32;100259.59;1710070;83;21407;-77
2023/08/26 09:10:48;;;;;;;10.15;3.50;;;;;;;35.67;25.22;100262.44;1713106;82;21377;-77
2023/08/26 09:13:54;;;;;;;4.97;2.67;;;;;;;36.21;24.55;100247.66;1713033;82;21406;-76
2023/08/26 09:17:00;;;;;;;6.80;2.98;;;;;;;36.44;24.30;100236.73;1719931;83;21355;-77
2023/08/26 09:20:06;;;;;;;6.35;2.65;;;;;;;36.65;23.58;100238.66;1718122;82;21358;-77
2023/08/26 09:23:13;;;;;;;9.38;2.70;;;;;;;36.77;23.87;100237.27;1712790;83;21359;-77
2023/08/26 09:26:18;;;;;;;5.87;2.35;;;;;;;37.12;23.67;100230.52;1717259;83;21355;-77
2023/08/26 09:29:26;;;;;;;6.42;2.20;;;;;;;37.23;23.48;100227.45;1713641;83;21286;-77
2023/08/26 09:32:45;;;;;;;4.95;2.20;;;;;;;37.64;22.72;100237.48;1722064;83;21985;-77
2023/08/26 09:36:02;;;;;;;4.20;2.50;;;;;;;37.79;22.38;100231.88;1714043;82;21377;-77
2023/08/26 09:39:06;;;;;;;4.58;2.22;;;;;;;38.13;22.74;100233.91;1710933;83;21323;-77
2023/08/26 09:42:12;;;;;;;4.53;2.20;;;;;;;38.31;21.92;100237.31;1714000;83;21374;-77
2023/08/26 09:45:20;;;;;;;5.72;1.95;;;;;;;38.14;21.54;100234.14;1715667;82;21398;-77
2023/08/26 09:48:30;;;;;;;5.20;2.37;;;;;;;38.02;21.67;100232.19;1715416;82;21355;-77
2023/08/26 09:51:36;;;;;;;5.92;3.08;;;;;;;38.15;21.87;100229.25;1716358;83;21339;-77
2023/08/26 09:58:22;;;;;;;6.10;2.22;;;;;;;37.63;22.37;100232.98;1714389;83;21351;-77
2023/08/26 10:01:28;;;;;;;5.87;2.37;;;;;;;37.69;22.32;100233.81;1714102;83;21356;-77
2023/08/26 10:04:34;;;;;;;15.70;2.67;;;;;;;37.83;21.87;100231.95;1713335;83;21355;-77
2023/08/26 10:07:39;;;;;;;4.58;2.15;;;;;;;37.62;22.06;100229.30;1715479;83;21414;-77
2023/08/26 10:11:03;;;;;;;8.40;2.20;;;;;;;37.27;21.82;100234.09;1716760;82;22061;-77
2023/08/26 10:14:09;;;;;;;3.15;2.08;;;;;;;37.19;22.14;100235.05;1717359;82;21917;-77
2023/08/26 10:17:16;;;;;;;5.97;2.05;;;;;;;37.15;21.43;100233.27;1714159;82;21368;-76
2023/08/26 10:20:24;;;;;;;6.08;2.30;;;;;;;36.97;21.55;100226.38;1712549;83;21343;-77
2023/08/26 10:23:30;;;;;;;4.55;2.15;;;;;;;37.01;21.82;100225.08;1717451;82;21355;-77
2023/08/26 10:26:36;;;;;;;6.10;2.20;;;;;;;37.13;21.45;100225.68;1714784;82;21352;-77
2023/08/26 10:29:43;;;;;;;8.28;2.12;;;;;;;37.19;21.36;100225.67;1717011;83;21752;-77
2023/08/26 10:32:49;;;;;;;6.78;2.20;;;;;;;37.01;21.28;100223.65;1714057;82;21322;-77
2023/08/26 10:36:21;;;;;;;4.87;2.60;;;;;;;37.66;21.29;100220.86;1710984;83;21664;-77
2023/08/26 10:39:27;;;;;;;3.90;1.80;;;;;;;37.72;20.61;100220.23;1710063;82;21877;-77
2023/08/26 10:42:33;;;;;;;12.10;2.45;;;;;;;38.42;20.88;100217.60;1710379;82;21347;-77
2023/08/26 10:45:39;;;;;;;7.10;2.15;;;;;;;38.60;20.36;100226.05;1714255;82;21428;-77
2023/08/26 10:49:03;;;;;;;12.07;2.60;;;;;;;38.57;20.09;100211.06;1701782;83;21313;-77
2023/08/26 10:52:25;;;;;;;12.90;2.50;;;;;;;38.44;19.90;100205.20;1689367;82;21339;-76
2023/08/26 10:59:58;;;;;;;6.05;2.33;;;;;;;37.89;20.51;100209.76;1615899;86;21795;-77
2023/08/26 11:03:03;;;;;;;9.23;2.25;;;;;;;37.88;20.21;100205.22;1619109;84;21365;-77
2023/08/26 11:06:19;;;;;;;7.40;2.37;;;;;;;38.05;19.66;100203.48;1628380;86;21354;-77
2023/08/26 11:09:21;;;;;;;5.75;2.52;;;;;;;38.43;20.41;100207.83;1656717;85;21377;-77
2023/08/26 11:12:36;;;;;;;8.35;2.17;;;;;;;38.78;20.55;100207.38;1621361;85;21398;-77
2023/08/26 11:15:48;;;;;;;9.65;2.10;;;;;;;38.89;19.60;100203.96;1655978;85;21725;-77
2023/08/26 11:19:01;;;;;;;4.20;2.25;;;;;;;38.89;19.21;100196.21;1663186;85;21385;-77
2023/08/26 11:22:07;;;;;;;4.33;2.30;;;;;;;38.84;18.95;100204.47;1673723;83;21339;-77
2023/08/26 11:25:13;;;;;;;4.45;2.17;;;;;;;39.03;18.85;100204.31;1715948;82;21350;-78
2023/08/26 11:28:18;;;;;;;5.37;2.20;;;;;;;38.86;19.25;100204.91;1714389;82;21326;-78
2023/08/26 11:31:25;;;;;;;4.75;2.40;;;;;;;38.73;19.58;100199.66;1711627;82;21374;-78
2023/08/26 11:34:31;;;;;;;8.68;2.10;;;;;;;38.30;19.35;100189.92;1721653;82;21401;-77
2023/08/26 11:37:50;;;;;;;5.33;2.30;;;;;;;38.40;19.78;100198.59;1722564;82;21681;-76
2023/08/26 11:40:57;;;;;;;6.80;2.33;;;;;;;38.89;19.86;100203.96;1721621;82;21356;-77
2023/08/26 11:44:04;;;;;;;4.53;2.42;;;;;;;38.91;19.43;100203.80;1716730;82;21328;-77
2023/08/26 11:47:11;;;;;;;6.92;2.42;;;;;;;38.42;19.35;100199.03;1721651;83;21331;-78
2023/08/26 11:50:19;;;;;;;3.90;2.35;;;;;;;38.83;19.36;100201.38;1721388;83;21944;-77
2023/08/26 11:53:26;;;;;;;10.03;2.20;;;;;;;39.08;19.09;100195.45;1724454;82;21413;-77
2023/08/26 11:56:31;;;;;;;9.50;2.52;;;;;;;39.14;19.37;100196.81;1724100;82;21356;-77
2023/08/26 11:59:45;;;;;;;10.18;2.50;;;;;;;39.22;19.49;100197.25;1730267;82;21936;-77
2023/08/26 12:02:54;;;;;;;4.80;2.30;;;;;;;38.90;19.42;100196.44;1715054;82;21342;-77
2023/08/26 12:06:00;;;;;;;12.33;2.35;;;;;;;38.70;19.91;100196.92;1715470;82;21378;-77
2023/08/26 12:09:06;;;;;;;10.78;2.50;;;;;;;38.78;20.26;100193.09;1723887;82;21945;-77
2023/08/26 12:12:13;;;;;;;4.67;2.40;;;;;;;39.02;19.90;100198.38;1717047;82;21330;-77
2023/08/26 12:15:23;;;;;;;4.58;2.20;;;;;;;39.07;19.07;100189.51;1727020;82;21357;-77
2023/08/26 12:18:29;;;;;;;9.15;2.37;;;;;;;38.71;19.22;100192.86;1723828;83;21884;-76
2023/08/26 12:21:39;;;;;;;4.60;2.55;;;;;;;38.68;19.25;100189.91;1721780;83;21338;-77
2023/08/26 12:24:46;;;;;;;5.50;2.60;;;;;;;38.78;19.88;100197.98;1722796;81;21372;-77
2023/08/26 12:27:54;;;;;;;8.40;3.15;;;;;;;38.74;19.75;100186.42;1722014;82;21337;-79
2023/08/26 12:31:07;;;;;;;6.55;2.45;;;;;;;38.46;21.03;100192.82;1719419;82;21356;-77
2023/08/26 12:34:13;;;;;;;7.75;3.02;;;;;;;38.63;20.57;100191.05;1717917;81;21340;-78
2023/08/26 12:37:19;;;;;;;11.95;2.95;;;;;;;38.50;20.59;100184.58;1724935;82;21903;-78
2023/08/26 12:40:25;;;;;;;6.37;2.70;;;;;;;38.49;20.20;100186.35;1721583;82;21352;-79
2023/08/26 12:43:31;;;;;;;16.65;2.90;;;;;;;38.45;20.33;100186.89;1722431;82;21369;-79
2023/08/26 12:46:36;;;;;;;7.05;3.20;;;;;;;38.49;19.89;100178.64;1728066;82;21931;-77
2023/08/26 12:49:43;;;;;;;8.68;3.27;;;;;;;38.09;20.15;100171.59;1728056;82;21348;-77
2023/08/26 12:52:49;;;;;;;5.30;2.85;;;;;;;38.12;20.08;100166.59;1721817;82;21376;-77
2023/08/26 12:55:54;;;;;;;11.05;2.95;;;;;;;37.98;20.23;100164.16;1714775;82;21641;-77
2023/08/26 12:59:01;;;;;;;8.93;2.85;;;;;;;38.18;20.26;100162.26;1718724;82;21382;-77
2023/08/26 13:02:07;;;;;;;5.58;2.90;;;;;;;38.66;19.91;100161.70;1712805;82;21367;-77
2023/08/26 13:05:17;;;;;;;6.42;2.70;;;;;;;38.66;19.70;100158.85;1721483;82;21365;-76
2023/08/26 13:08:21;;;;;;;;;;;;;;;38.30;20.32;100166.51;1716098;82;21366;-77
2023/08/26 13:11:27;;;;;;;7.87;2.70;;;;;;;38.19;20.46;100160.23;1726892;82;20281;-76
2023/08/26 13:14:32;;;;;;;8.00;2.85;;;;;;;38.17;20.32;100147.75;1724459;82;21357;-77
2023/08/26 13:17:38;;;;;;;7.70;2.42;;;;;;;37.60;20.84;100144.69;1724384;82;21963;-77
2023/08/26 13:20:47;;;;;;;9.40;3.33;;;;;;;37.57;21.31;100136.84;1727899;82;21325;-77
2023/08/26 13:23:54;;;;;;;5.78;3.00;;;;;;;37.66;21.07;100135.27;1722377;82;21882;-77
2023/08/26 13:26:59;;;;;;;8.55;3.12;;;;;;;37.85;21.13;100131.16;1721481;82;21924;-77
2023/08/26 13:30:06;;;;;;;9.35;3.72;;;;;;;37.78;20.81;100133.77;1721536;82;22006;-77
2023/08/26 13:33:11;;;;;;;7.70;3.52;;;;;;;37.85;20.72;100126.88;1720572;82;21908;-77
2023/08/26 13:36:17;;;;;;;12.93;3.52;;;;;;;37.53;21.02;100123.89;1715728;82;21341;-77
2023/08/26 13:39:23;;;;;;;5.70;2.98;;;;;;;37.70;20.42;100120.51;1724572;82;21337;-77
2023/08/26 13:42:30;;;;;;;12.47;3.30;;;;;;;37.73;20.92;100119.16;1721543;82;21641;-77
2023/08/26 13:45:36;;;;;;;11.80;3.37;;;;;;;37.77;21.24;100120.70;1719943;83;21353;-77
2023/08/26 13:48:41;;;;;;;5.83;2.95;;;;;;;37.72;21.24;100118.93;1719220;82;21357;-77
2023/08/26 13:51:47;;;;;;;10.00;3.10;;;;;;;37.83;20.78;100121.52;1718391;82;21356;-77
2023/08/26 13:54:53;;;;;;;8.33;3.25;;;;;;;37.57;20.75;100122.58;1724534;82;21666;-77
2023/08/26 13:57:59;;;;;;;6.75;3.10;;;;;;;37.54;21.16;100122.69;1725143;82;21372;-77
2023/08/26 14:01:05;;;;;;;6.30;3.12;;;;;;;37.38;21.23;100128.11;1723766;82;21999;-77
2023/08/26 14:04:12;;;;;;;8.50;3.20;;;;;;;37.38;21.07;100120.98;1728310;82;21982;-77
2023/08/26 14:07:18;;;;;;;9.63;3.35;;;;;;;37.37;20.94;100122.16;1722934;82;21927;-76
2023/08/26 14:10:23;;;;;;;9.68;3.37;;;;;;;37.48;20.77;100123.32;1728470;82;21352;-77
2023/08/26 14:13:31;;;;;;;5.28;2.92;;;;;;;37.47;21.02;100117.39;1721547;82;21341;-77
2023/08/26 14:16:37;;;;;;;7.37;3.10;;;;;;;37.28;21.06;100124.55;1722162;82;21333;-77
2023/08/26 14:19:43;;;;;;;8.10;3.10;;;;;;;37.07;21.66;100121.02;1719050;82;21876;-77
2023/08/26 14:22:49;;;;;;;7.10;2.98;;;;;;;36.99;21.49;100122.00;1720903;82;21970;-77
2023/08/26 14:25:54;;;;;;;9.10;3.08;;;;;;;36.77;21.52;100122.69;1721501;82;21357;-77
2023/08/26 14:29:01;;;;;;;8.28;3.05;;;;;;;37.21;21.13;100128.59;1715837;82;21376;-76